sensor_id;sensor_type;location;lat;lon;timestamp;temperature;humidity
25550;DHT22;13444;50.562;7.262;2024-02-26T00:01:07;8.20;17.90
25550;DHT22;13444;50.562;7.262;2024-02-26T00:03:33;8.10;20.80
25550;DHT22;13444;50.562;7.262;2024-02-26T00:06:01;8.10;22.80
25550;DHT22;13444;50.562;7.262;2024-02-26T00:08:27;8.10;25.10
25550;DHT22;13444;50.562;7.262;2024-02-26T00:10:53;8.10;28.10
25550;DHT22;13444;50.562;7.262;2024-02-26T00:13:19;8.10;32.90
25550;DHT22;13444;50.562;7.262;2024-02-26T00:15:45;8.00;37.20
25550;DHT22;13444;50.562;7.262;2024-02-26T00:18:11;8.10;32.70
25550;DHT22;13444;50.562;7.262;2024-02-26T00:20:36;8.10;34.20
25550;DHT22;13444;50.562;7.262;2024-02-26T00:23:02;8.10;34.70
25550;DHT22;13444;50.562;7.262;2024-02-26T00:25:27;8.10;35.20
25550;DHT22;13444;50.562;7.262;2024-02-26T00:27:53;8.20;28.20
25550;DHT22;13444;50.562;7.262;2024-02-26T00:30:18;8.20;31.40
25550;DHT22;13444;50.562;7.262;2024-02-26T00:32:44;8.20;34.40
25550;DHT22;13444;50.562;7.262;2024-02-26T00:35:09;8.20;36.60
25550;DHT22;13444;50.562;7.262;2024-02-26T00:37:35;8.10;38.40
25550;DHT22;13444;50.562;7.262;2024-02-26T00:40:00;8.10;40.50
25550;DHT22;13444;50.562;7.262;2024-02-26T00:42:26;8.10;44.50
25550;DHT22;13444;50.562;7.262;2024-02-26T00:44:51;8.10;44.10
25550;DHT22;13444;50.562;7.262;2024-02-26T00:47:17;8.10;46.80
25550;DHT22;13444;50.562;7.262;2024-02-26T00:49:42;8.10;45.10
25550;DHT22;13444;50.562;7.262;2024-02-26T00:52:08;8.10;45.20
25550;DHT22;13444;50.562;7.262;2024-02-26T00:54:33;8.10;47.50
25550;DHT22;13444;50.562;7.262;2024-02-26T00:56:59;8.10;49.50
25550;DHT22;13444;50.562;7.262;2024-02-26T00:59:24;8.10;58.00
25550;DHT22;13444;50.562;7.262;2024-02-26T01:01:50;8.00;60.70
25550;DHT22;13444;50.562;7.262;2024-02-26T01:04:15;8.00;63.80
25550;DHT22;13444;50.562;7.262;2024-02-26T01:06:41;8.00;66.50
25550;DHT22;13444;50.562;7.262;2024-02-26T01:09:06;8.00;70.90
25550;DHT22;13444;50.562;7.262;2024-02-26T01:11:32;8.00;69.90
25550;DHT22;13444;50.562;7.262;2024-02-26T01:13:57;8.00;72.50
25550;DHT22;13444;50.562;7.262;2024-02-26T01:16:23;8.00;73.40
25550;DHT22;13444;50.562;7.262;2024-02-26T01:18:49;8.00;67.00
25550;DHT22;13444;50.562;7.262;2024-02-26T01:21:14;8.10;62.00
25550;DHT22;13444;50.562;7.262;2024-02-26T01:23:40;8.10;61.40
25550;DHT22;13444;50.562;7.262;2024-02-26T01:26:06;8.20;64.50
25550;DHT22;13444;50.562;7.262;2024-02-26T01:28:31;8.10;67.30
25550;DHT22;13444;50.562;7.262;2024-02-26T01:30:57;8.10;67.40
25550;DHT22;13444;50.562;7.262;2024-02-26T01:33:25;8.10;67.40
25550;DHT22;13444;50.562;7.262;2024-02-26T01:35:50;8.10;70.50
25550;DHT22;13444;50.562;7.262;2024-02-26T01:38:16;8.10;71.50
25550;DHT22;13444;50.562;7.262;2024-02-26T01:40:41;8.20;77.90
25550;DHT22;13444;50.562;7.262;2024-02-26T01:43:07;8.10;77.60
25550;DHT22;13444;50.562;7.262;2024-02-26T01:45:32;8.10;78.90
25550;DHT22;13444;50.562;7.262;2024-02-26T01:47:58;8.10;81.50
25550;DHT22;13444;50.562;7.262;2024-02-26T01:50:24;8.00;82.10
25550;DHT22;13444;50.562;7.262;2024-02-26T01:52:50;8.00;78.80
25550;DHT22;13444;50.562;7.262;2024-02-26T01:55:18;8.00;81.10
25550;DHT22;13444;50.562;7.262;2024-02-26T01:57:45;8.00;89.80
25550;DHT22;13444;50.562;7.262;2024-02-26T02:00:13;8.00;81.20
25550;DHT22;13444;50.562;7.262;2024-02-26T02:02:39;8.00;86.40
25550;DHT22;13444;50.562;7.262;2024-02-26T02:05:08;8.10;86.30
25550;DHT22;13444;50.562;7.262;2024-02-26T02:07:35;8.10;73.60
25550;DHT22;13444;50.562;7.262;2024-02-26T02:10:01;8.10;70.50
25550;DHT22;13444;50.562;7.262;2024-02-26T02:12:28;8.20;71.20
25550;DHT22;13444;50.562;7.262;2024-02-26T02:14:53;8.20;69.70
25550;DHT22;13444;50.562;7.262;2024-02-26T02:17:19;8.10;71.00
25550;DHT22;13444;50.562;7.262;2024-02-26T02:19:45;8.20;75.50
25550;DHT22;13444;50.562;7.262;2024-02-26T02:22:11;8.10;77.00
25550;DHT22;13444;50.562;7.262;2024-02-26T02:24:36;8.10;78.90
25550;DHT22;13444;50.562;7.262;2024-02-26T02:27:02;8.10;87.10
25550;DHT22;13444;50.562;7.262;2024-02-26T02:29:28;8.10;90.80
25550;DHT22;13444;50.562;7.262;2024-02-26T02:31:54;8.10;92.20
25550;DHT22;13444;50.562;7.262;2024-02-26T02:34:21;8.10;93.30
25550;DHT22;13444;50.562;7.262;2024-02-26T02:36:53;8.10;88.60
25550;DHT22;13444;50.562;7.262;2024-02-26T02:39:20;8.30;77.90
25550;DHT22;13444;50.562;7.262;2024-02-26T02:41:46;8.30;78.00
25550;DHT22;13444;50.562;7.262;2024-02-26T02:44:12;8.30;84.10
25550;DHT22;13444;50.562;7.262;2024-02-26T02:46:38;8.30;85.90
25550;DHT22;13444;50.562;7.262;2024-02-26T02:49:04;8.20;91.70
25550;DHT22;13444;50.562;7.262;2024-02-26T02:51:29;8.10;95.70
25550;DHT22;13444;50.562;7.262;2024-02-26T02:53:55;8.10;97.80
25550;DHT22;13444;50.562;7.262;2024-02-26T02:56:21;8.10;98.90
25550;DHT22;13444;50.562;7.262;2024-02-26T02:58:47;8.10;99.90
25550;DHT22;13444;50.562;7.262;2024-02-26T03:01:13;8.10;99.90
25550;DHT22;13444;50.562;7.262;2024-02-26T03:03:38;8.00;99.90
25550;DHT22;13444;50.562;7.262;2024-02-26T03:06:04;8.00;99.90
25550;DHT22;13444;50.562;7.262;2024-02-26T03:08:30;7.90;99.90
25550;DHT22;13444;50.562;7.262;2024-02-26T03:10:55;7.90;99.90
25550;DHT22;13444;50.562;7.262;2024-02-26T03:13:21;7.90;99.90
25550;DHT22;13444;50.562;7.262;2024-02-26T03:15:46;7.80;99.90
25550;DHT22;13444;50.562;7.262;2024-02-26T03:18:12;7.80;99.90
25550;DHT22;13444;50.562;7.262;2024-02-26T03:20:38;7.70;99.90
25550;DHT22;13444;50.562;7.262;2024-02-26T03:23:04;7.70;99.90
25550;DHT22;13444;50.562;7.262;2024-02-26T03:25:29;7.60;99.90
25550;DHT22;13444;50.562;7.262;2024-02-26T03:27:55;7.60;99.90
25550;DHT22;13444;50.562;7.262;2024-02-26T03:30:20;7.60;99.90
25550;DHT22;13444;50.562;7.262;2024-02-26T03:32:46;7.50;99.90
25550;DHT22;13444;50.562;7.262;2024-02-26T03:35:13;7.50;99.90
25550;DHT22;13444;50.562;7.262;2024-02-26T03:37:38;7.50;99.90
25550;DHT22;13444;50.562;7.262;2024-02-26T03:40:04;7.50;99.90
25550;DHT22;13444;50.562;7.262;2024-02-26T03:42:30;7.50;99.90
25550;DHT22;13444;50.562;7.262;2024-02-26T03:44:55;7.50;99.90
25550;DHT22;13444;50.562;7.262;2024-02-26T03:47:21;7.50;99.90
25550;DHT22;13444;50.562;7.262;2024-02-26T03:49:46;7.40;99.90
25550;DHT22;13444;50.562;7.262;2024-02-26T03:52:13;7.40;99.90
25550;DHT22;13444;50.562;7.262;2024-02-26T03:54:38;7.40;99.90
25550;DHT22;13444;50.562;7.262;2024-02-26T03:57:04;7.30;99.90
25550;DHT22;13444;50.562;7.262;2024-02-26T03:59:29;7.40;99.90
25550;DHT22;13444;50.562;7.262;2024-02-26T04:01:55;7.40;99.90
25550;DHT22;13444;50.562;7.262;2024-02-26T04:04:20;7.30;99.90
25550;DHT22;13444;50.562;7.262;2024-02-26T04:06:46;7.30;99.90
25550;DHT22;13444;50.562;7.262;2024-02-26T04:09:15;7.30;99.90
25550;DHT22;13444;50.562;7.262;2024-02-26T04:11:41;7.30;99.90
25550;DHT22;13444;50.562;7.262;2024-02-26T04:14:08;7.30;99.90
25550;DHT22;13444;50.562;7.262;2024-02-26T04:16:34;7.30;99.90
25550;DHT22;13444;50.562;7.262;2024-02-26T04:19:01;7.30;99.90
25550;DHT22;13444;50.562;7.262;2024-02-26T04:21:26;7.30;99.90
25550;DHT22;13444;50.562;7.262;2024-02-26T04:23:52;7.30;99.90
25550;DHT22;13444;50.562;7.262;2024-02-26T04:26:20;7.30;99.90
25550;DHT22;13444;50.562;7.262;2024-02-26T04:28:46;7.30;99.90
25550;DHT22;13444;50.562;7.262;2024-02-26T04:31:12;7.30;99.90
25550;DHT22;13444;50.562;7.262;2024-02-26T04:33:37;7.30;99.90
25550;DHT22;13444;50.562;7.262;2024-02-26T04:36:03;7.20;99.90
25550;DHT22;13444;50.562;7.262;2024-02-26T04:38:29;7.20;99.90
25550;DHT22;13444;50.562;7.262;2024-02-26T04:40:54;7.20;99.90
25550;DHT22;13444;50.562;7.262;2024-02-26T04:43:20;7.20;99.90
25550;DHT22;13444;50.562;7.262;2024-02-26T04:45:45;7.20;99.90
25550;DHT22;13444;50.562;7.262;2024-02-26T04:48:11;7.30;99.90
25550;DHT22;13444;50.562;7.262;2024-02-26T04:50:36;7.20;99.90
25550;DHT22;13444;50.562;7.262;2024-02-26T04:53:02;7.20;99.90
25550;DHT22;13444;50.562;7.262;2024-02-26T04:55:27;7.20;99.90
25550;DHT22;13444;50.562;7.262;2024-02-26T04:57:53;7.20;99.90
25550;DHT22;13444;50.562;7.262;2024-02-26T05:00:18;7.20;99.90
25550;DHT22;13444;50.562;7.262;2024-02-26T05:02:44;7.20;99.90
25550;DHT22;13444;50.562;7.262;2024-02-26T05:05:09;7.10;99.90
25550;DHT22;13444;50.562;7.262;2024-02-26T05:07:40;7.10;99.90
25550;DHT22;13444;50.562;7.262;2024-02-26T05:10:06;7.10;99.90
25550;DHT22;13444;50.562;7.262;2024-02-26T05:12:32;7.10;99.90
25550;DHT22;13444;50.562;7.262;2024-02-26T05:15:00;7.10;99.90
25550;DHT22;13444;50.562;7.262;2024-02-26T05:17:25;7.00;99.90
25550;DHT22;13444;50.562;7.262;2024-02-26T05:19:51;7.10;99.90
25550;DHT22;13444;50.562;7.262;2024-02-26T05:22:16;7.10;99.90
25550;DHT22;13444;50.562;7.262;2024-02-26T05:24:42;7.10;99.90
25550;DHT22;13444;50.562;7.262;2024-02-26T05:27:08;7.10;99.90
25550;DHT22;13444;50.562;7.262;2024-02-26T05:29:33;7.00;99.90
25550;DHT22;13444;50.562;7.262;2024-02-26T05:31:59;7.10;99.90
25550;DHT22;13444;50.562;7.262;2024-02-26T05:34:25;7.00;99.90
25550;DHT22;13444;50.562;7.262;2024-02-26T05:36:50;7.00;99.90
25550;DHT22;13444;50.562;7.262;2024-02-26T05:39:16;7.00;99.90
25550;DHT22;13444;50.562;7.262;2024-02-26T05:41:41;7.00;99.90
25550;DHT22;13444;50.562;7.262;2024-02-26T05:44:08;7.00;99.90
25550;DHT22;13444;50.562;7.262;2024-02-26T05:46:35;7.00;99.90
25550;DHT22;13444;50.562;7.262;2024-02-26T05:49:01;7.00;99.90
25550;DHT22;13444;50.562;7.262;2024-02-26T05:51:26;7.10;99.90
25550;DHT22;13444;50.562;7.262;2024-02-26T05:53:52;7.00;99.90
25550;DHT22;13444;50.562;7.262;2024-02-26T05:56:22;7.00;99.90
25550;DHT22;13444;50.562;7.262;2024-02-26T05:58:47;7.00;99.90
25550;DHT22;13444;50.562;7.262;2024-02-26T06:01:15;7.00;99.90
25550;DHT22;13444;50.562;7.262;2024-02-26T06:03:41;7.00;99.90
25550;DHT22;13444;50.562;7.262;2024-02-26T06:06:06;7.00;99.90
25550;DHT22;13444;50.562;7.262;2024-02-26T06:08:32;7.00;99.90
25550;DHT22;13444;50.562;7.262;2024-02-26T06:10:57;7.00;99.90
25550;DHT22;13444;50.562;7.262;2024-02-26T06:13:23;7.00;99.90
25550;DHT22;13444;50.562;7.262;2024-02-26T06:15:48;7.10;99.90
25550;DHT22;13444;50.562;7.262;2024-02-26T06:18:14;7.00;99.90
25550;DHT22;13444;50.562;7.262;2024-02-26T06:20:39;7.00;99.90
25550;DHT22;13444;50.562;7.262;2024-02-26T06:23:05;7.00;99.90
25550;DHT22;13444;50.562;7.262;2024-02-26T06:25:30;7.00;99.90
25550;DHT22;13444;50.562;7.262;2024-02-26T06:27:56;7.00;99.90
25550;DHT22;13444;50.562;7.262;2024-02-26T06:30:21;7.00;99.90
25550;DHT22;13444;50.562;7.262;2024-02-26T06:32:47;7.10;99.90
25550;DHT22;13444;50.562;7.262;2024-02-26T06:35:12;7.00;99.90
25550;DHT22;13444;50.562;7.262;2024-02-26T06:37:38;7.00;99.90
25550;DHT22;13444;50.562;7.262;2024-02-26T06:40:04;7.00;99.90
25550;DHT22;13444;50.562;7.262;2024-02-26T06:42:31;7.00;99.90
25550;DHT22;13444;50.562;7.262;2024-02-26T06:44:57;7.00;99.90
25550;DHT22;13444;50.562;7.262;2024-02-26T06:47:23;7.00;99.90
25550;DHT22;13444;50.562;7.262;2024-02-26T06:49:48;7.00;99.90
25550;DHT22;13444;50.562;7.262;2024-02-26T06:52:14;7.00;99.90
25550;DHT22;13444;50.562;7.262;2024-02-26T06:54:39;7.00;99.90
25550;DHT22;13444;50.562;7.262;2024-02-26T06:57:05;7.00;99.90
25550;DHT22;13444;50.562;7.262;2024-02-26T06:59:30;7.00;99.90
25550;DHT22;13444;50.562;7.262;2024-02-26T07:01:56;7.00;99.90
25550;DHT22;13444;50.562;7.262;2024-02-26T07:04:22;7.00;99.90
25550;DHT22;13444;50.562;7.262;2024-02-26T07:06:47;7.00;99.90
25550;DHT22;13444;50.562;7.262;2024-02-26T07:09:13;7.00;99.90
25550;DHT22;13444;50.562;7.262;2024-02-26T07:11:39;7.00;99.90
25550;DHT22;13444;50.562;7.262;2024-02-26T07:14:08;7.00;99.90
25550;DHT22;13444;50.562;7.262;2024-02-26T07:16:34;7.00;99.90
25550;DHT22;13444;50.562;7.262;2024-02-26T07:18:59;7.00;99.90
25550;DHT22;13444;50.562;7.262;2024-02-26T07:21:24;7.00;99.90
25550;DHT22;13444;50.562;7.262;2024-02-26T07:23:50;7.00;99.90
25550;DHT22;13444;50.562;7.262;2024-02-26T07:26:15;7.00;99.90
25550;DHT22;13444;50.562;7.262;2024-02-26T07:28:43;7.00;99.90
25550;DHT22;13444;50.562;7.262;2024-02-26T07:31:09;7.10;99.90
25550;DHT22;13444;50.562;7.262;2024-02-26T07:33:34;7.10;99.90
25550;DHT22;13444;50.562;7.262;2024-02-26T07:36:00;7.10;99.90
25550;DHT22;13444;50.562;7.262;2024-02-26T07:38:25;7.10;99.90
25550;DHT22;13444;50.562;7.262;2024-02-26T07:40:51;7.10;99.90
25550;DHT22;13444;50.562;7.262;2024-02-26T07:43:16;7.10;99.90
25550;DHT22;13444;50.562;7.262;2024-02-26T07:45:42;7.10;99.90
25550;DHT22;13444;50.562;7.262;2024-02-26T07:48:08;7.10;99.90
25550;DHT22;13444;50.562;7.262;2024-02-26T07:50:33;7.10;99.90
25550;DHT22;13444;50.562;7.262;2024-02-26T07:52:59;7.10;99.90
25550;DHT22;13444;50.562;7.262;2024-02-26T07:55:24;7.10;99.90
25550;DHT22;13444;50.562;7.262;2024-02-26T07:57:49;7.10;99.90
25550;DHT22;13444;50.562;7.262;2024-02-26T08:00:15;7.10;99.90
25550;DHT22;13444;50.562;7.262;2024-02-26T08:02:42;7.10;99.90
25550;DHT22;13444;50.562;7.262;2024-02-26T08:05:09;7.10;99.90
25550;DHT22;13444;50.562;7.262;2024-02-26T08:07:34;7.10;99.90
25550;DHT22;13444;50.562;7.262;2024-02-26T08:10:00;7.10;99.90
25550;DHT22;13444;50.562;7.262;2024-02-26T08:12:25;7.20;99.90
25550;DHT22;13444;50.562;7.262;2024-02-26T08:14:51;7.10;99.90
25550;DHT22;13444;50.562;7.262;2024-02-26T08:17:16;7.10;99.90
25550;DHT22;13444;50.562;7.262;2024-02-26T08:19:42;7.10;99.90
25550;DHT22;13444;50.562;7.262;2024-02-26T08:22:07;7.10;99.90
25550;DHT22;13444;50.562;7.262;2024-02-26T08:24:33;7.10;99.90
25550;DHT22;13444;50.562;7.262;2024-02-26T08:26:58;7.10;99.90
25550;DHT22;13444;50.562;7.262;2024-02-26T08:29:24;7.10;99.90
25550;DHT22;13444;50.562;7.262;2024-02-26T08:31:49;7.20;99.90
25550;DHT22;13444;50.562;7.262;2024-02-26T08:34:15;7.20;99.90
25550;DHT22;13444;50.562;7.262;2024-02-26T08:36:41;7.20;99.90
25550;DHT22;13444;50.562;7.262;2024-02-26T08:39:08;7.20;99.90
25550;DHT22;13444;50.562;7.262;2024-02-26T08:41:34;7.20;99.90
25550;DHT22;13444;50.562;7.262;2024-02-26T08:44:00;7.20;99.90
25550;DHT22;13444;50.562;7.262;2024-02-26T08:46:25;7.20;99.90
25550;DHT22;13444;50.562;7.262;2024-02-26T08:48:51;7.20;99.90
25550;DHT22;13444;50.562;7.262;2024-02-26T08:51:16;7.20;99.90
25550;DHT22;13444;50.562;7.262;2024-02-26T08:53:42;7.20;99.90
25550;DHT22;13444;50.562;7.262;2024-02-26T08:56:07;7.20;99.90
25550;DHT22;13444;50.562;7.262;2024-02-26T08:58:33;7.30;99.90
25550;DHT22;13444;50.562;7.262;2024-02-26T09:00:58;7.30;99.90
25550;DHT22;13444;50.562;7.262;2024-02-26T09:03:24;7.30;99.90
25550;DHT22;13444;50.562;7.262;2024-02-26T09:05:49;7.30;99.90
25550;DHT22;13444;50.562;7.262;2024-02-26T09:08:15;7.30;99.90
25550;DHT22;13444;50.562;7.262;2024-02-26T09:10:41;7.30;99.90
25550;DHT22;13444;50.562;7.262;2024-02-26T09:13:07;7.40;99.90
25550;DHT22;13444;50.562;7.262;2024-02-26T09:15:32;7.30;99.90
25550;DHT22;13444;50.562;7.262;2024-02-26T09:17:58;7.40;99.90
25550;DHT22;13444;50.562;7.262;2024-02-26T09:20:23;7.40;99.90
25550;DHT22;13444;50.562;7.262;2024-02-26T09:22:50;7.40;99.90
25550;DHT22;13444;50.562;7.262;2024-02-26T09:25:16;7.40;99.90
25550;DHT22;13444;50.562;7.262;2024-02-26T09:27:42;7.40;99.90
25550;DHT22;13444;50.562;7.262;2024-02-26T09:30:09;7.40;99.90
25550;DHT22;13444;50.562;7.262;2024-02-26T09:32:35;7.40;99.90
25550;DHT22;13444;50.562;7.262;2024-02-26T09:35:01;7.40;99.90
25550;DHT22;13444;50.562;7.262;2024-02-26T09:37:27;7.40;99.90
25550;DHT22;13444;50.562;7.262;2024-02-26T09:39:52;7.50;99.90
25550;DHT22;13444;50.562;7.262;2024-02-26T09:42:19;7.50;99.90
25550;DHT22;13444;50.562;7.262;2024-02-26T09:44:45;7.50;99.90
25550;DHT22;13444;50.562;7.262;2024-02-26T09:47:12;7.40;99.90
25550;DHT22;13444;50.562;7.262;2024-02-26T09:49:41;7.40;99.90
25550;DHT22;13444;50.562;7.262;2024-02-26T09:52:08;7.40;99.90
25550;DHT22;13444;50.562;7.262;2024-02-26T09:54:35;7.50;99.90
25550;DHT22;13444;50.562;7.262;2024-02-26T09:57:02;7.50;99.90
25550;DHT22;13444;50.562;7.262;2024-02-26T09:59:29;7.60;99.90
25550;DHT22;13444;50.562;7.262;2024-02-26T10:02:00;7.70;99.90
25550;DHT22;13444;50.562;7.262;2024-02-26T10:04:27;7.70;99.90
25550;DHT22;13444;50.562;7.262;2024-02-26T10:06:53;7.80;99.90
25550;DHT22;13444;50.562;7.262;2024-02-26T10:09:19;7.80;99.90
25550;DHT22;13444;50.562;7.262;2024-02-26T10:11:45;7.80;99.90
25550;DHT22;13444;50.562;7.262;2024-02-26T10:14:14;7.90;99.90
25550;DHT22;13444;50.562;7.262;2024-02-26T10:16:40;7.90;99.90
25550;DHT22;13444;50.562;7.262;2024-02-26T10:19:06;8.00;99.90
25550;DHT22;13444;50.562;7.262;2024-02-26T10:21:32;8.00;99.90
25550;DHT22;13444;50.562;7.262;2024-02-26T10:23:57;8.00;99.90
25550;DHT22;13444;50.562;7.262;2024-02-26T10:26:23;8.00;99.90
25550;DHT22;13444;50.562;7.262;2024-02-26T10:28:49;8.10;99.90
25550;DHT22;13444;50.562;7.262;2024-02-26T10:31:14;8.10;99.90
25550;DHT22;13444;50.562;7.262;2024-02-26T10:33:42;8.10;99.90
25550;DHT22;13444;50.562;7.262;2024-02-26T10:36:08;8.10;99.90
25550;DHT22;13444;50.562;7.262;2024-02-26T10:38:35;8.10;99.90
25550;DHT22;13444;50.562;7.262;2024-02-26T10:41:02;8.20;99.90
25550;DHT22;13444;50.562;7.262;2024-02-26T10:43:28;8.20;99.90
25550;DHT22;13444;50.562;7.262;2024-02-26T10:45:57;8.20;99.90
25550;DHT22;13444;50.562;7.262;2024-02-26T10:48:23;8.20;99.90
25550;DHT22;13444;50.562;7.262;2024-02-26T10:50:49;8.20;99.90
25550;DHT22;13444;50.562;7.262;2024-02-26T10:53:17;8.20;99.90
25550;DHT22;13444;50.562;7.262;2024-02-26T10:55:48;8.30;99.90
25550;DHT22;13444;50.562;7.262;2024-02-26T10:58:14;8.30;99.90
25550;DHT22;13444;50.562;7.262;2024-02-26T11:00:42;8.30;99.90
25550;DHT22;13444;50.562;7.262;2024-02-26T11:03:09;8.30;99.90
25550;DHT22;13444;50.562;7.262;2024-02-26T11:05:35;8.30;99.90
25550;DHT22;13444;50.562;7.262;2024-02-26T11:08:03;8.30;99.90
25550;DHT22;13444;50.562;7.262;2024-02-26T11:10:29;8.30;99.90
25550;DHT22;13444;50.562;7.262;2024-02-26T11:12:57;8.30;99.90
25550;DHT22;13444;50.562;7.262;2024-02-26T11:15:25;8.30;99.90
25550;DHT22;13444;50.562;7.262;2024-02-26T11:17:52;8.20;99.90
25550;DHT22;13444;50.562;7.262;2024-02-26T11:20:19;8.20;99.90
25550;DHT22;13444;50.562;7.262;2024-02-26T11:22:45;8.20;99.90
25550;DHT22;13444;50.562;7.262;2024-02-26T11:25:11;8.20;99.90
25550;DHT22;13444;50.562;7.262;2024-02-26T11:27:57;8.20;99.90
25550;DHT22;13444;50.562;7.262;2024-02-26T11:30:25;8.30;99.90
25550;DHT22;13444;50.562;7.262;2024-02-26T11:32:52;8.30;99.90
25550;DHT22;13444;50.562;7.262;2024-02-26T11:35:18;8.30;99.90
25550;DHT22;13444;50.562;7.262;2024-02-26T11:37:54;8.30;99.90
25550;DHT22;13444;50.562;7.262;2024-02-26T11:40:23;8.30;99.90
25550;DHT22;13444;50.562;7.262;2024-02-26T11:42:49;8.30;99.90
25550;DHT22;13444;50.562;7.262;2024-02-26T11:48:11;8.40;99.90
25550;DHT22;13444;50.562;7.262;2024-02-26T11:50:50;8.40;99.90
25550;DHT22;13444;50.562;7.262;2024-02-26T11:53:27;8.50;99.90
25550;DHT22;13444;50.562;7.262;2024-02-26T12:01:50;8.60;99.90
25550;DHT22;13444;50.562;7.262;2024-02-26T12:04:25;8.60;99.90
25550;DHT22;13444;50.562;7.262;2024-02-26T12:06:56;8.60;99.90
25550;DHT22;13444;50.562;7.262;2024-02-26T12:12:03;8.70;99.90
25550;DHT22;13444;50.562;7.262;2024-02-26T12:14:28;8.70;99.90
25550;DHT22;13444;50.562;7.262;2024-02-26T12:16:55;8.80;99.90
25550;DHT22;13444;50.562;7.262;2024-02-26T12:19:21;8.80;99.90
25550;DHT22;13444;50.562;7.262;2024-02-26T12:21:51;8.80;99.90
25550;DHT22;13444;50.562;7.262;2024-02-26T12:24:18;8.90;99.90
25550;DHT22;13444;50.562;7.262;2024-02-26T12:26:43;8.90;99.90
25550;DHT22;13444;50.562;7.262;2024-02-26T12:29:10;8.90;99.90
25550;DHT22;13444;50.562;7.262;2024-02-26T12:31:36;8.90;99.90
25550;DHT22;13444;50.562;7.262;2024-02-26T12:34:03;9.00;99.90
25550;DHT22;13444;50.562;7.262;2024-02-26T12:36:29;9.00;99.90
25550;DHT22;13444;50.562;7.262;2024-02-26T12:38:54;9.00;99.90
25550;DHT22;13444;50.562;7.262;2024-02-26T12:41:21;9.10;99.90
25550;DHT22;13444;50.562;7.262;2024-02-26T12:43:47;9.10;99.90
25550;DHT22;13444;50.562;7.262;2024-02-26T12:46:12;9.10;99.90
25550;DHT22;13444;50.562;7.262;2024-02-26T12:48:39;9.10;99.90
25550;DHT22;13444;50.562;7.262;2024-02-26T12:51:07;9.10;99.90
25550;DHT22;13444;50.562;7.262;2024-02-26T12:53:33;9.10;99.90
25550;DHT22;13444;50.562;7.262;2024-02-26T12:55:58;9.10;99.90
25550;DHT22;13444;50.562;7.262;2024-02-26T12:58:24;9.10;99.90
25550;DHT22;13444;50.562;7.262;2024-02-26T13:00:54;9.10;99.90
25550;DHT22;13444;50.562;7.262;2024-02-26T13:03:21;9.10;99.90
25550;DHT22;13444;50.562;7.262;2024-02-26T13:05:47;9.10;99.90
25550;DHT22;13444;50.562;7.262;2024-02-26T13:08:20;9.10;99.90
25550;DHT22;13444;50.562;7.262;2024-02-26T13:10:46;9.10;99.90
25550;DHT22;13444;50.562;7.262;2024-02-26T13:13:15;9.00;99.90
25550;DHT22;13444;50.562;7.262;2024-02-26T13:15:44;9.00;99.90
25550;DHT22;13444;50.562;7.262;2024-02-26T13:18:18;9.00;99.90
25550;DHT22;13444;50.562;7.262;2024-02-26T13:20:44;9.00;99.90
25550;DHT22;13444;50.562;7.262;2024-02-26T13:23:13;9.00;99.90
25550;DHT22;13444;50.562;7.262;2024-02-26T13:25:38;9.00;99.90
25550;DHT22;13444;50.562;7.262;2024-02-26T13:28:18;9.00;99.90
25550;DHT22;13444;50.562;7.262;2024-02-26T13:30:56;8.90;99.90
25550;DHT22;13444;50.562;7.262;2024-02-26T13:33:23;8.90;99.90
25550;DHT22;13444;50.562;7.262;2024-02-26T13:35:50;9.00;99.90
25550;DHT22;13444;50.562;7.262;2024-02-26T13:38:16;9.00;99.90
25550;DHT22;13444;50.562;7.262;2024-02-26T13:40:41;9.00;99.90
25550;DHT22;13444;50.562;7.262;2024-02-26T13:43:07;9.00;99.90
25550;DHT22;13444;50.562;7.262;2024-02-26T13:45:37;9.00;99.90
25550;DHT22;13444;50.562;7.262;2024-02-26T13:48:04;9.10;99.90
25550;DHT22;13444;50.562;7.262;2024-02-26T13:50:30;9.10;99.90
25550;DHT22;13444;50.562;7.262;2024-02-26T13:52:56;9.10;99.90
25550;DHT22;13444;50.562;7.262;2024-02-26T13:55:23;9.20;99.90
25550;DHT22;13444;50.562;7.262;2024-02-26T13:57:52;9.20;99.90
25550;DHT22;13444;50.562;7.262;2024-02-26T14:00:19;9.20;99.90
25550;DHT22;13444;50.562;7.262;2024-02-26T14:02:44;9.20;99.90
25550;DHT22;13444;50.562;7.262;2024-02-26T14:05:10;9.20;99.90
25550;DHT22;13444;50.562;7.262;2024-02-26T14:07:36;9.20;99.90
25550;DHT22;13444;50.562;7.262;2024-02-26T14:10:01;9.20;99.90
25550;DHT22;13444;50.562;7.262;2024-02-26T14:12:27;9.30;99.90
25550;DHT22;13444;50.562;7.262;2024-02-26T14:14:53;9.30;99.90
25550;DHT22;13444;50.562;7.262;2024-02-26T14:17:19;9.30;99.90
25550;DHT22;13444;50.562;7.262;2024-02-26T14:19:45;9.40;99.90
25550;DHT22;13444;50.562;7.262;2024-02-26T14:22:12;9.40;99.90
25550;DHT22;13444;50.562;7.262;2024-02-26T14:24:38;9.40;99.90
25550;DHT22;13444;50.562;7.262;2024-02-26T14:27:05;9.40;99.90
25550;DHT22;13444;50.562;7.262;2024-02-26T14:29:31;9.40;99.90
25550;DHT22;13444;50.562;7.262;2024-02-26T14:31:57;9.40;99.90
25550;DHT22;13444;50.562;7.262;2024-02-26T14:34:22;9.40;99.90
25550;DHT22;13444;50.562;7.262;2024-02-26T14:36:48;9.30;99.90
25550;DHT22;13444;50.562;7.262;2024-02-26T14:39:14;9.30;99.90
25550;DHT22;13444;50.562;7.262;2024-02-26T14:41:39;9.20;99.90
25550;DHT22;13444;50.562;7.262;2024-02-26T14:44:05;9.20;99.90
25550;DHT22;13444;50.562;7.262;2024-02-26T14:46:31;9.30;99.90
25550;DHT22;13444;50.562;7.262;2024-02-26T14:48:56;9.30;99.90
25550;DHT22;13444;50.562;7.262;2024-02-26T14:51:23;9.30;99.90
25550;DHT22;13444;50.562;7.262;2024-02-26T14:53:49;9.20;99.90
25550;DHT22;13444;50.562;7.262;2024-02-26T14:56:14;9.20;99.90
25550;DHT22;13444;50.562;7.262;2024-02-26T14:58:40;9.20;99.90
25550;DHT22;13444;50.562;7.262;2024-02-26T15:01:06;9.20;99.90
25550;DHT22;13444;50.562;7.262;2024-02-26T15:03:32;9.20;99.90
25550;DHT22;13444;50.562;7.262;2024-02-26T15:05:58;9.20;99.90
25550;DHT22;13444;50.562;7.262;2024-02-26T15:08:23;9.20;99.90
25550;DHT22;13444;50.562;7.262;2024-02-26T15:10:49;9.20;99.90
25550;DHT22;13444;50.562;7.262;2024-02-26T15:13:15;9.20;99.90
25550;DHT22;13444;50.562;7.262;2024-02-26T15:15:41;9.20;99.90
25550;DHT22;13444;50.562;7.262;2024-02-26T15:18:07;9.20;99.90
25550;DHT22;13444;50.562;7.262;2024-02-26T15:20:34;9.20;99.90
25550;DHT22;13444;50.562;7.262;2024-02-26T15:23:00;9.20;99.90
25550;DHT22;13444;50.562;7.262;2024-02-26T15:25:25;9.20;99.90
25550;DHT22;13444;50.562;7.262;2024-02-26T15:27:51;9.20;99.90
25550;DHT22;13444;50.562;7.262;2024-02-26T15:30:17;9.20;99.90
25550;DHT22;13444;50.562;7.262;2024-02-26T15:32:42;9.20;99.90
25550;DHT22;13444;50.562;7.262;2024-02-26T15:35:09;9.20;99.90
25550;DHT22;13444;50.562;7.262;2024-02-26T15:37:35;9.20;99.90
25550;DHT22;13444;50.562;7.262;2024-02-26T15:40:01;9.30;99.90
25550;DHT22;13444;50.562;7.262;2024-02-26T15:42:26;9.20;99.90
25550;DHT22;13444;50.562;7.262;2024-02-26T15:44:52;9.20;99.90
25550;DHT22;13444;50.562;7.262;2024-02-26T15:47:17;9.20;99.90
25550;DHT22;13444;50.562;7.262;2024-02-26T15:49:43;9.20;99.90